createdAt,value
2018-08-11T00:00:06.513Z,56.08
2018-08-11T00:02:33.420Z,55.93
2018-08-11T00:05:00.355Z,55.83
2018-08-11T00:07:27.265Z,55.52
2018-08-11T00:09:54.209Z,55.92
2018-08-11T00:12:21.157Z,55.43
2018-08-11T00:14:48.049Z,55.25
2018-08-11T00:17:14.958Z,55.94
2018-08-11T00:19:41.867Z,55.64
2018-08-11T00:22:08.782Z,55.95
2018-08-11T00:24:35.694Z,55.75
2018-08-11T00:27:02.666Z,55.50
2018-08-11T00:29:29.578Z,56.00
2018-08-11T00:31:56.493Z,55.49
2018-08-11T00:34:23.411Z,55.33
2018-08-11T00:36:50.316Z,56.09
2018-08-11T00:39:17.224Z,54.08
2018-08-11T00:41:44.154Z,54.63
2018-08-11T00:44:11.524Z,56.60
2018-08-11T00:46:38.538Z,57.23
2018-08-11T00:49:05.481Z,56.33
2018-08-11T00:51:32.424Z,57.46
2018-08-11T00:53:59.337Z,57.22
2018-08-11T00:56:26.270Z,57.12
2018-08-11T00:58:53.169Z,57.72
2018-08-11T01:01:20.332Z,58.62
2018-08-11T01:03:47.258Z,57.79
2018-08-11T01:06:14.174Z,59.67
2018-08-11T01:08:41.078Z,59.77
2018-08-11T01:11:07.999Z,60.22
2018-08-11T01:13:34.937Z,60.18
2018-08-11T01:16:01.832Z,59.14
2018-08-11T01:18:28.765Z,60.16
2018-08-11T01:20:55.674Z,60.85
2018-08-11T01:23:22.581Z,60.32
2018-08-11T01:25:49.481Z,61.53
2018-08-11T01:28:16.386Z,60.42
2018-08-11T01:30:43.302Z,60.45
2018-08-11T01:33:10.196Z,60.77
2018-08-11T01:35:37.111Z,59.64
2018-08-11T01:38:04.008Z,60.43
2018-08-11T01:40:30.914Z,59.64
2018-08-11T01:42:57.816Z,60.11
2018-08-11T01:45:24.730Z,60.22
2018-08-11T01:47:51.628Z,61.42
2018-08-11T01:50:18.541Z,60.82
2018-08-11T01:52:46.592Z,59.95
2018-08-11T01:55:14.567Z,60.16
2018-08-11T01:57:41.823Z,59.69
2018-08-11T02:00:09.186Z,58.97
2018-08-11T02:02:36.107Z,58.25
2018-08-11T02:05:03.021Z,59.26
2018-08-11T02:07:29.968Z,58.78
2018-08-11T02:09:56.868Z,59.72
2018-08-11T02:12:23.773Z,60.16
2018-08-11T02:14:50.678Z,60.87
2018-08-11T02:17:17.596Z,60.89
2018-08-11T02:19:44.539Z,62.06
2018-08-11T02:22:11.434Z,61.05
2018-08-11T02:24:38.406Z,60.46
2018-08-11T02:27:05.293Z,59.86
2018-08-11T02:29:32.198Z,59.94
2018-08-11T02:31:59.116Z,59.34
2018-08-11T02:34:26.236Z,58.43
2018-08-11T02:36:53.046Z,59.08
2018-08-11T02:39:19.980Z,58.43
2018-08-11T02:41:46.884Z,58.96
2018-08-11T02:44:13.802Z,58.62
2018-08-11T02:46:40.745Z,58.34
2018-08-11T02:49:08.370Z,58.33
2018-08-11T02:51:35.342Z,57.11
2018-08-11T02:54:02.765Z,57.19
2018-08-11T02:56:29.702Z,57.54
2018-08-11T02:58:56.608Z,57.16
2018-08-11T03:01:23.504Z,57.21
2018-08-11T03:03:50.422Z,56.48
2018-08-11T03:06:17.330Z,56.85
2018-08-11T03:08:44.258Z,56.94
2018-08-11T03:11:11.161Z,56.95
2018-08-11T03:13:38.088Z,56.73
2018-08-11T03:16:04.988Z,57.05
2018-08-11T03:18:31.894Z,56.86
2018-08-11T03:20:58.793Z,57.54
2018-08-11T03:23:25.717Z,56.64
2018-08-11T03:25:52.616Z,57.43
2018-08-11T03:28:19.524Z,57.41
2018-08-11T03:30:46.465Z,57.48
2018-08-11T03:33:13.386Z,57.44
2018-08-11T03:35:40.289Z,58.72
2018-08-11T03:38:07.287Z,59.90
2018-08-11T03:40:34.189Z,59.96
2018-08-11T03:43:01.094Z,59.36
2018-08-11T03:45:28.000Z,59.69
2018-08-11T03:47:54.896Z,60.33
2018-08-11T03:50:21.804Z,60.26
2018-08-11T03:52:48.734Z,60.20
2018-08-11T03:55:15.654Z,60.22
2018-08-11T03:57:42.596Z,61.07
2018-08-11T04:00:10.208Z,61.07
2018-08-11T04:02:37.148Z,61.19
2018-08-11T04:05:04.054Z,60.07
2018-08-11T04:07:30.992Z,60.10
2018-08-11T04:09:57.916Z,60.13
2018-08-11T04:12:24.829Z,60.62
2018-08-11T04:14:51.752Z,60.56
2018-08-11T04:17:18.685Z,61.02
2018-08-11T04:19:45.597Z,60.83
2018-08-11T04:22:12.526Z,60.74
2018-08-11T04:24:39.448Z,60.69
2018-08-11T04:27:06.358Z,61.55
2018-08-11T04:29:33.257Z,60.74
2018-08-11T04:32:00.173Z,61.37
2018-08-11T04:34:27.085Z,61.67
2018-08-11T04:36:53.997Z,61.36
2018-08-11T04:39:20.901Z,61.88
2018-08-11T04:41:47.812Z,61.74
2018-08-11T04:44:14.723Z,61.39
2018-08-11T04:46:41.637Z,61.90
2018-08-11T04:49:08.550Z,61.06
2018-08-11T04:51:35.462Z,62.30
2018-08-11T04:54:02.357Z,61.31
2018-08-11T04:56:29.251Z,61.72
2018-08-11T04:58:56.162Z,61.01
2018-08-11T05:01:23.077Z,61.79
2018-08-11T05:03:50.010Z,61.48
2018-08-11T05:06:16.913Z,61.13
2018-08-11T05:08:43.863Z,62.03
2018-08-11T05:11:10.786Z,61.47
2018-08-11T05:13:37.681Z,61.65
2018-08-11T05:16:04.571Z,61.38
2018-08-11T05:18:31.478Z,62.31
2018-08-11T05:20:58.385Z,61.36
2018-08-11T05:23:25.294Z,62.20
2018-08-11T05:25:52.204Z,62.33
2018-08-11T05:28:19.095Z,63.15
2018-08-11T05:30:46.005Z,62.43
2018-08-11T05:33:12.938Z,62.80
2018-08-11T05:35:39.843Z,62.81
2018-08-11T05:38:06.735Z,62.78
2018-08-11T05:40:33.657Z,62.55
2018-08-11T05:43:00.561Z,64.22
2018-08-11T05:45:27.813Z,63.53
2018-08-11T05:47:54.708Z,63.72
2018-08-11T05:50:21.662Z,63.98
2018-08-11T05:52:48.572Z,64.03
2018-08-11T05:55:15.515Z,63.69
2018-08-11T05:57:42.401Z,64.46
2018-08-11T06:00:09.764Z,63.81
2018-08-11T06:02:36.660Z,64.12
2018-08-11T06:05:03.600Z,64.06
2018-08-11T06:07:30.496Z,64.14
2018-08-11T06:09:57.417Z,64.30
2018-08-11T06:12:24.350Z,64.09
2018-08-11T06:14:51.265Z,64.51
2018-08-11T06:17:18.220Z,65.34
2018-08-11T06:19:45.133Z,64.25
2018-08-11T06:22:12.062Z,65.08
2018-08-11T06:24:38.960Z,64.94
2018-08-11T06:27:05.901Z,64.41
2018-08-11T06:29:32.805Z,64.42
2018-08-11T06:31:59.742Z,63.74
2018-08-11T06:34:26.651Z,63.56
2018-08-11T06:36:53.569Z,64.86
2018-08-11T06:39:20.498Z,64.90
2018-08-11T06:41:47.420Z,65.12
2018-08-11T06:44:14.376Z,65.59
2018-08-11T06:46:41.324Z,65.55
2018-08-11T06:49:08.318Z,64.75
2018-08-11T06:51:35.318Z,65.35
2018-08-11T06:54:02.250Z,65.63
2018-08-11T06:56:29.173Z,66.36
2018-08-11T06:58:56.102Z,64.35
2018-08-11T07:01:23.016Z,64.63
2018-08-11T07:03:49.946Z,64.59
2018-08-11T07:06:16.840Z,63.97
2018-08-11T07:08:43.759Z,63.18
2018-08-11T07:11:10.661Z,63.02
2018-08-11T07:13:37.579Z,64.72
2018-08-11T07:16:04.497Z,64.78
2018-08-11T07:18:31.421Z,65.73
2018-08-11T07:20:58.329Z,64.53
2018-08-11T07:23:25.296Z,63.95
2018-08-11T07:25:52.213Z,64.50
2018-08-11T07:28:19.126Z,63.48
2018-08-11T07:30:46.040Z,63.94
2018-08-11T07:33:12.977Z,63.54
2018-08-11T07:35:40.926Z,62.60
2018-08-11T07:38:07.870Z,62.08
2018-08-11T07:40:34.790Z,61.13
2018-08-11T07:43:01.731Z,60.93
2018-08-11T07:45:28.633Z,61.00
2018-08-11T07:47:55.528Z,61.16
2018-08-11T07:50:22.491Z,61.10
2018-08-11T07:52:49.348Z,60.81
2018-08-11T07:55:16.261Z,61.14
2018-08-11T07:57:43.161Z,60.88
2018-08-11T08:00:11.341Z,60.22
2018-08-11T08:02:38.632Z,59.77
2018-08-11T08:05:05.528Z,60.62
2018-08-11T08:07:32.413Z,60.29
2018-08-11T08:09:59.305Z,60.63
2018-08-11T08:12:26.211Z,59.85
2018-08-11T08:14:53.126Z,60.46
2018-08-11T08:17:20.032Z,60.46
2018-08-11T08:19:46.969Z,59.97
2018-08-11T08:22:13.879Z,60.34
2018-08-11T08:24:40.776Z,60.10
2018-08-11T08:27:07.673Z,60.07
2018-08-11T08:29:34.575Z,60.04
2018-08-11T08:32:01.479Z,59.79
2018-08-11T08:34:28.377Z,59.25
2018-08-11T08:36:55.287Z,59.07
2018-08-11T08:39:22.205Z,59.57
2018-08-11T08:41:49.129Z,59.45
2018-08-11T08:44:16.030Z,58.87
2018-08-11T08:46:42.934Z,58.88
2018-08-11T08:49:09.834Z,58.75
2018-08-11T08:51:36.823Z,59.03
2018-08-11T08:54:03.721Z,58.51
2018-08-11T08:56:30.631Z,58.77
2018-08-11T08:58:57.536Z,57.92
2018-08-11T09:01:24.529Z,58.92
2018-08-11T09:03:51.425Z,58.19
2018-08-11T09:06:18.323Z,57.88
2018-08-11T09:08:45.216Z,58.71
2018-08-11T09:11:12.117Z,57.87
2018-08-11T09:13:39.087Z,58.57
2018-08-11T09:16:05.997Z,58.04
2018-08-11T09:18:32.909Z,58.40
2018-08-11T09:20:59.902Z,58.18
2018-08-11T09:23:26.817Z,57.91
2018-08-11T09:25:53.700Z,58.17
2018-08-11T09:28:20.665Z,58.24
2018-08-11T09:30:47.563Z,57.31
2018-08-11T09:33:14.449Z,57.97
2018-08-11T09:35:41.345Z,57.47
2018-08-11T09:38:08.339Z,58.29
2018-08-11T09:40:35.272Z,57.72
2018-08-11T09:43:02.219Z,58.11
2018-08-11T09:45:29.576Z,58.14
2018-08-11T09:47:56.851Z,57.58
2018-08-11T09:50:24.036Z,58.26
2018-08-11T09:52:51.219Z,57.88
2018-08-11T09:55:19.520Z,58.25
2018-08-11T09:57:47.269Z,57.80
2018-08-11T10:00:14.622Z,57.94
2018-08-11T10:02:41.796Z,57.72
2018-08-11T10:05:09.127Z,58.39
2018-08-11T10:07:36.367Z,57.71
2018-08-11T10:10:03.576Z,57.86
2018-08-11T10:12:30.968Z,57.78
2018-08-11T10:14:58.127Z,57.59
2018-08-11T10:17:25.308Z,57.87
2018-08-11T10:19:52.246Z,58.32
2018-08-11T10:22:19.282Z,58.30
2018-08-11T10:24:46.220Z,57.73
2018-08-11T10:27:13.136Z,58.47
2018-08-11T10:29:40.085Z,57.72
2018-08-11T10:32:06.984Z,57.80
2018-08-11T10:34:33.869Z,58.23
2018-08-11T10:37:00.783Z,57.60
2018-08-11T10:39:27.952Z,58.49
2018-08-11T10:41:54.917Z,58.11
2018-08-11T10:44:21.837Z,57.52
2018-08-11T10:46:48.957Z,58.32
2018-08-11T10:49:15.889Z,58.33
2018-08-11T10:51:42.858Z,58.28
2018-08-11T10:54:09.752Z,58.42
2018-08-11T10:56:36.701Z,58.52
2018-08-11T10:59:03.612Z,58.33
2018-08-11T11:01:30.545Z,58.33
2018-08-11T11:03:57.463Z,57.67
2018-08-11T11:06:24.373Z,58.57
2018-08-11T11:08:51.294Z,57.88
2018-08-11T11:11:18.245Z,57.90
2018-08-11T11:13:45.154Z,58.31
2018-08-11T11:16:12.078Z,57.77
2018-08-11T11:18:39.001Z,58.12
2018-08-11T11:21:06.248Z,57.78
2018-08-11T11:23:33.273Z,57.99
2018-08-11T11:26:00.213Z,57.93
2018-08-11T11:28:27.214Z,57.88
2018-08-11T11:30:54.152Z,58.34
2018-08-11T11:33:21.242Z,58.26
2018-08-11T11:35:48.214Z,57.48
2018-08-11T11:38:15.211Z,58.01
2018-08-11T11:40:42.153Z,58.29
2018-08-11T11:43:09.073Z,57.66
2018-08-11T11:45:36.009Z,57.78
2018-08-11T11:48:02.964Z,57.96
2018-08-11T11:50:29.861Z,57.61
2018-08-11T11:52:56.756Z,58.29
2018-08-11T11:55:23.903Z,57.71
2018-08-11T11:57:51.216Z,58.27
2018-08-11T12:00:18.263Z,57.54
2018-08-11T12:02:45.217Z,58.31
2018-08-11T12:05:12.144Z,58.26
2018-08-11T12:07:39.131Z,57.81
2018-08-11T12:10:06.081Z,58.28
2018-08-11T12:12:33.024Z,57.67
2018-08-11T12:14:59.994Z,57.43
2018-08-11T12:17:26.929Z,57.91
2018-08-11T12:19:53.833Z,58.20
2018-08-11T12:22:20.757Z,57.70
2018-08-11T12:24:47.674Z,57.69
2018-08-11T12:27:14.678Z,57.97
2018-08-11T12:29:41.622Z,57.73
2018-08-11T12:32:08.529Z,57.56
2018-08-11T12:34:35.476Z,58.13
2018-08-11T12:37:02.385Z,58.35
2018-08-11T12:39:29.337Z,57.77
2018-08-11T12:41:56.281Z,58.18
2018-08-11T12:44:23.238Z,58.40
2018-08-11T12:46:50.234Z,57.63
2018-08-11T12:49:17.217Z,58.18
2018-08-11T12:51:44.140Z,58.13
2018-08-11T12:54:11.144Z,57.79
2018-08-11T12:56:38.049Z,57.53
2018-08-11T12:59:04.953Z,58.26
2018-08-11T13:01:31.905Z,57.56
2018-08-11T13:03:58.881Z,57.76
2018-08-11T13:06:25.954Z,57.99
2018-08-11T13:08:52.969Z,57.41
2018-08-11T13:11:19.962Z,57.59
2018-08-11T13:13:46.881Z,57.83
2018-08-11T13:16:13.825Z,57.50
2018-08-11T13:18:41.172Z,58.17
2018-08-11T13:21:08.128Z,57.74
2018-08-11T13:23:35.104Z,58.30
2018-08-11T13:26:02.041Z,58.18
2018-08-11T13:28:29.042Z,57.84
2018-08-11T13:30:55.971Z,57.59
2018-08-11T13:33:22.868Z,58.13
2018-08-11T13:35:49.911Z,57.36
2018-08-11T13:38:17.029Z,58.23
2018-08-11T13:40:43.949Z,58.17
2018-08-11T13:43:10.877Z,57.92
2018-08-11T13:45:37.936Z,57.85
2018-08-11T13:48:04.901Z,58.36
2018-08-11T13:50:31.845Z,59.35
2018-08-11T13:52:59.220Z,59.20
2018-08-11T13:55:26.139Z,59.74
2018-08-11T13:57:53.085Z,60.12
2018-08-11T14:00:20.035Z,59.49
2018-08-11T14:02:47.953Z,60.14
2018-08-11T14:05:14.866Z,60.07
2018-08-11T14:07:41.974Z,59.45
2018-08-11T14:10:10.013Z,59.13
2018-08-11T14:12:36.953Z,60.01
2018-08-11T14:15:04.297Z,59.13
2018-08-11T14:17:31.277Z,59.52
2018-08-11T14:19:58.260Z,59.28
2018-08-11T14:22:25.187Z,59.41
2018-08-11T14:24:52.162Z,58.90
2018-08-11T14:27:19.120Z,58.59
2018-08-11T14:29:46.034Z,59.31
2018-08-11T14:32:12.947Z,59.09
2018-08-11T14:34:39.884Z,59.10
2018-08-11T14:37:06.822Z,59.16
2018-08-11T14:39:33.729Z,58.52
2018-08-11T14:42:00.680Z,59.08
2018-08-11T14:44:27.643Z,58.26
2018-08-11T14:46:54.558Z,58.56
2018-08-11T14:49:21.477Z,59.03
2018-08-11T14:51:48.420Z,58.96
2018-08-11T14:54:15.320Z,58.86
2018-08-11T14:56:42.244Z,58.57
2018-08-11T14:59:09.169Z,58.20
2018-08-11T15:01:36.122Z,58.17
2018-08-11T15:04:03.033Z,58.96
2018-08-11T15:06:30.090Z,58.21
2018-08-11T15:08:57.026Z,58.08
2018-08-11T15:11:23.996Z,57.82
2018-08-11T15:13:50.968Z,57.89
2018-08-11T15:16:17.929Z,58.62
2018-08-11T15:18:44.915Z,58.70
2018-08-11T15:21:11.841Z,58.09
2018-08-11T15:23:38.837Z,58.00
2018-08-11T15:26:05.737Z,58.14
2018-08-11T15:28:32.624Z,57.99
2018-08-11T15:30:59.630Z,58.18
2018-08-11T15:33:26.707Z,58.22
2018-08-11T15:35:54.034Z,58.81
2018-08-11T15:38:21.209Z,58.17
2018-08-11T15:40:48.146Z,57.95
2018-08-11T15:43:15.185Z,58.76
2018-08-11T15:45:42.265Z,58.34
2018-08-11T15:48:09.450Z,57.89
2018-08-11T15:50:36.521Z,58.43
2018-08-11T15:53:03.504Z,58.50
2018-08-11T15:55:30.499Z,58.45
2018-08-11T15:57:57.444Z,58.13
2018-08-11T16:00:24.354Z,58.34
2018-08-11T16:02:51.599Z,57.92
2018-08-11T16:05:18.644Z,58.40
2018-08-11T16:07:45.572Z,58.49
2018-08-11T16:10:12.681Z,58.67
2018-08-11T16:12:39.661Z,58.59
2018-08-11T16:15:06.658Z,58.54
2018-08-11T16:17:33.747Z,58.12
2018-08-11T16:20:00.722Z,58.92
2018-08-11T16:22:27.645Z,58.68
2018-08-11T16:24:54.541Z,59.27
2018-08-11T16:27:21.495Z,58.52
2018-08-11T16:29:48.498Z,58.45
2018-08-11T16:32:15.816Z,58.03
2018-08-11T16:34:42.765Z,58.05
2018-08-11T16:37:09.709Z,58.10
2018-08-11T16:39:36.649Z,57.67
2018-08-11T16:42:03.609Z,57.17
2018-08-11T16:44:30.511Z,57.97
2018-08-11T16:46:57.444Z,57.22
2018-08-11T16:49:24.537Z,57.32
2018-08-11T16:51:51.464Z,57.81
2018-08-11T16:54:18.441Z,57.27
2018-08-11T16:56:45.381Z,57.38
2018-08-11T16:59:12.297Z,57.25
2018-08-11T17:01:39.231Z,57.61
2018-08-11T17:04:06.197Z,58.00
2018-08-11T17:06:33.126Z,57.84
2018-08-11T17:09:00.018Z,57.54
2018-08-11T17:11:26.921Z,57.29
2018-08-11T17:13:53.864Z,57.25
2018-08-11T17:16:20.779Z,57.23
2018-08-11T17:18:47.664Z,57.60
2018-08-11T17:21:14.618Z,57.07
2018-08-11T17:23:41.531Z,57.34
2018-08-11T17:26:08.476Z,57.75
2018-08-11T17:28:35.369Z,57.11
2018-08-11T17:31:02.366Z,57.81
2018-08-11T17:33:29.365Z,57.83
2018-08-11T17:35:56.258Z,57.58
2018-08-11T17:38:23.146Z,57.09
2018-08-11T17:40:50.136Z,57.16
2018-08-11T17:43:17.014Z,57.78
2018-08-11T17:45:43.901Z,57.04
2018-08-11T17:48:10.789Z,57.62
2018-08-11T17:50:37.737Z,57.70
2018-08-11T17:53:04.617Z,57.01
2018-08-11T17:55:31.586Z,57.43
2018-08-11T17:57:58.416Z,57.75
2018-08-11T18:00:25.313Z,57.71
2018-08-11T18:02:52.237Z,57.48
2018-08-11T18:05:19.134Z,57.04
2018-08-11T18:07:46.162Z,57.45
2018-08-11T18:10:13.180Z,56.80
2018-08-11T18:12:40.179Z,57.49
2018-08-11T18:15:07.036Z,57.68
2018-08-11T18:17:33.929Z,57.11
2018-08-11T18:20:00.841Z,57.07
2018-08-11T18:22:27.857Z,57.72
2018-08-11T18:24:54.740Z,57.50
2018-08-11T18:27:21.633Z,57.06
2018-08-11T18:29:48.549Z,57.47
2018-08-11T18:32:15.476Z,57.21
2018-08-11T18:34:42.396Z,56.99
2018-08-11T18:37:09.294Z,56.71
2018-08-11T18:39:36.181Z,57.30
2018-08-11T18:42:03.074Z,57.63
2018-08-11T18:44:29.989Z,56.89
2018-08-11T18:46:56.884Z,57.14
2018-08-11T18:49:23.774Z,56.72
2018-08-11T18:51:51.032Z,57.47
2018-08-11T18:54:18.014Z,57.28
2018-08-11T18:56:44.951Z,47.00
2018-08-11T18:59:11.893Z,43.34
2018-08-11T19:01:38.886Z,44.15
2018-08-11T19:04:05.793Z,41.70
2018-08-11T19:06:32.721Z,44.34
2018-08-11T19:08:59.650Z,43.40
2018-08-11T19:11:26.537Z,43.71
2018-08-11T19:13:53.473Z,46.63
2018-08-11T19:16:20.361Z,46.48
2018-08-11T19:18:47.260Z,44.36
2018-08-11T19:21:14.154Z,44.27
2018-08-11T19:23:41.044Z,44.13
2018-08-11T19:26:08.060Z,46.22
2018-08-11T19:28:35.223Z,47.34
2018-08-11T19:31:02.575Z,46.68
2018-08-11T19:33:29.495Z,44.99
2018-08-11T19:35:56.386Z,47.07
2018-08-11T19:38:23.281Z,45.95
2018-08-11T19:40:50.207Z,46.29
2018-08-11T19:43:17.115Z,46.29
2018-08-11T19:45:44.019Z,47.02
2018-08-11T19:48:10.998Z,47.85
2018-08-11T19:50:37.930Z,48.42
2018-08-11T19:53:04.895Z,48.56
2018-08-11T19:55:31.856Z,48.83
2018-08-11T19:57:58.805Z,49.05
2018-08-11T20:00:25.765Z,49.12
2018-08-11T20:02:52.738Z,48.84
2018-08-11T20:05:19.673Z,49.10
2018-08-11T20:07:46.606Z,50.11
2018-08-11T20:10:13.576Z,50.08
2018-08-11T20:12:40.616Z,49.84
2018-08-11T20:15:07.613Z,50.81
2018-08-11T20:17:34.570Z,51.09
2018-08-11T20:20:01.504Z,50.50
2018-08-11T20:22:28.410Z,51.14
2018-08-11T20:24:55.347Z,51.45
2018-08-11T20:27:22.301Z,51.14
2018-08-11T20:29:49.227Z,51.80
2018-08-11T20:32:16.187Z,51.87
2018-08-11T20:34:43.718Z,52.17
2018-08-11T20:37:11.668Z,51.82
2018-08-11T20:39:38.598Z,51.74
2018-08-11T20:42:05.690Z,52.30
2018-08-11T20:44:32.659Z,52.39
2018-08-11T20:46:59.948Z,51.81
2018-08-11T20:49:26.902Z,52.66
2018-08-11T20:51:53.855Z,52.43
2018-08-11T20:54:20.776Z,52.18
2018-08-11T20:56:47.802Z,52.87
2018-08-11T20:59:14.741Z,52.41
2018-08-11T21:01:41.722Z,52.39
2018-08-11T21:04:08.639Z,52.91
2018-08-11T21:06:35.615Z,53.51
2018-08-11T21:09:02.589Z,52.86
2018-08-11T21:11:29.536Z,52.46
2018-08-11T21:13:56.519Z,52.58
2018-08-11T21:16:23.609Z,53.23
2018-08-11T21:18:50.893Z,52.53
2018-08-11T21:21:17.804Z,52.35
2018-08-11T21:23:44.815Z,51.98
2018-08-11T21:26:11.713Z,52.71
2018-08-11T21:28:38.656Z,52.51
2018-08-11T21:31:05.573Z,53.09
2018-08-11T21:33:32.509Z,52.78
2018-08-11T21:35:59.404Z,52.92
2018-08-11T21:38:26.311Z,52.77
2018-08-11T21:40:53.252Z,53.29
2018-08-11T21:43:20.188Z,53.71
2018-08-11T21:45:47.261Z,53.58
2018-08-11T21:48:14.191Z,53.18
2018-08-11T21:50:41.138Z,53.88
2018-08-11T21:53:08.084Z,53.56
2018-08-11T21:55:35.041Z,53.51
2018-08-11T21:58:01.984Z,53.14
2018-08-11T22:00:29.781Z,53.98
2018-08-11T22:02:56.774Z,53.79
2018-08-11T22:05:24.196Z,53.42
2018-08-11T22:07:51.125Z,53.32
2018-08-11T22:10:18.055Z,53.32
2018-08-11T22:12:44.977Z,53.91
2018-08-11T22:15:11.985Z,54.15
2018-08-11T22:17:38.993Z,53.28
2018-08-11T22:20:05.973Z,53.44
2018-08-11T22:22:32.952Z,54.17
2018-08-11T22:24:59.873Z,53.99
2018-08-11T22:27:26.853Z,53.50
2018-08-11T22:29:53.852Z,54.30
2018-08-11T22:32:20.772Z,53.73
2018-08-11T22:34:47.668Z,53.76
2018-08-11T22:37:14.629Z,54.53
2018-08-11T22:39:41.578Z,54.62
2018-08-11T22:42:08.519Z,54.46
2018-08-11T22:44:35.461Z,53.99
2018-08-11T22:47:02.429Z,54.43
2018-08-11T22:49:29.401Z,54.44
2018-08-11T22:51:56.325Z,53.77
2018-08-11T22:54:23.295Z,54.58
2018-08-11T22:56:50.233Z,54.18
2018-08-11T22:59:17.235Z,54.19
2018-08-11T23:01:44.202Z,54.00
2018-08-11T23:04:11.213Z,54.60
2018-08-11T23:06:38.153Z,54.12
2018-08-11T23:09:05.147Z,54.58
2018-08-11T23:11:32.126Z,54.09
2018-08-11T23:13:59.030Z,54.14
2018-08-11T23:16:25.944Z,54.20
2018-08-11T23:18:52.874Z,54.30
2018-08-11T23:21:19.815Z,54.05
2018-08-11T23:23:46.779Z,55.01
2018-08-11T23:26:13.721Z,54.30
2018-08-11T23:28:40.663Z,54.11
2018-08-11T23:31:07.645Z,54.41
2018-08-11T23:33:34.693Z,54.20
2018-08-11T23:36:01.621Z,54.48
2018-08-11T23:38:28.621Z,54.44
2018-08-11T23:40:55.625Z,54.29
2018-08-11T23:43:22.622Z,54.51
2018-08-11T23:45:49.563Z,54.29
2018-08-11T23:48:16.574Z,54.80
2018-08-11T23:50:43.513Z,54.47
2018-08-11T23:53:10.434Z,54.58
2018-08-11T23:55:37.357Z,54.77
2018-08-11T23:58:04.295Z,54.95
